Portada
METAR-TAF:

METAR-TAF

Aeroports :

Chillán, Xile

latitud: 36-34S, longitud: 072-02W, altitud: 124 m

Observació

L'informe es va fer fa 10 minuts, a les 14:00 UTC
Vent 9 kt del Sud/Sud-Oest
Temperatura 13°C
Humitat 62%
Pressió 1017 hPa

METAR: SCCH 301400Z AUTO 20009KT //// R/////// NCD 13/06 Q1017

Hora: 11:10 (14:10 UTC)


TAF: manca

Observacions i pronòstics meteorològics de més de 4000 aeroports (METAR i TAF).

Les estacions disponibles són els punts grocs i vermells al mapa.

Posi el ratolí al punt desitjat per veure el nom de l'estació.

Feu clic per veure les observacions i els pronòstics meteorològics.

Per canviar el mapa: feu clic els botons verds amb una creu de color negre per apropar; al botó verd amb un guió per allunyar la imatge; o en les fletxes verdes per a mapes adjacents.


METAR-TAF: